This is the latest recevied weather packets stored in our database for station/object iz1wiy-3. If no packets are shown the sender has not sent any weather packets the latest 1 day(s).
| Time | Temp. | Humidity | Pressure | Rain* | Wind** | Luminosity | Snow |
|---|---|---|---|---|---|---|---|
| 1778031663 | 15° C | 91% | 1010.2 hPa | 3.05 mm | 0 m/s | - | - |
| 1778031603 | 15° C | 91% | 1010.1 hPa | 2.79 mm | 0 m/s | - | - |
| 1778031543 | 15.56° C | 91% | 1010 hPa | 2.79 mm | 0 m/s | - | - |
| 1778031483 | 15.56° C | 91% | 1010.2 hPa | 2.54 mm | 0 m/s | - | - |
| 1778031423 | 15.56° C | 91% | 1010.2 hPa | 2.29 mm | 0 m/s | - | - |
| 1778031363 | 15.56° C | 91% | 1010.3 hPa | 2.03 mm | 0 m/s | - | - |
| 1778031303 | 15.56° C | 91% | 1010.4 hPa | 1.78 mm | 0 m/s | - | - |
| 1778031243 | 15.56° C | 91% | 1010.4 hPa | 1.78 mm | 0 m/s | - | - |
| 1778031183 | 15.56° C | 91% | 1010.4 hPa | 1.78 mm | 0 m/s | - | - |
| 1778031123 | 15.56° C | 91% | 1010.4 hPa | 1.78 mm | 0 m/s | - | - |
| 1778031063 | 15.56° C | 91% | 1010.4 hPa | 1.78 mm | 0 m/s | - | - |
| 1778031003 | 15.56° C | 91% | 1010.4 hPa | 1.78 mm | 0 m/s | - | - |
| 1778030943 | 15.56° C | 91% | 1010.5 hPa | 1.78 mm | 0 m/s | - | - |
| 1778030883 | 15.56° C | 91% | 1010.5 hPa | 1.78 mm | 0 m/s | - | - |
| 1778030823 | 15.56° C | 91% | 1010.5 hPa | 1.78 mm | 0 m/s | - | - |
| 1778030763 | 15.56° C | 91% | 1010.5 hPa | 1.52 mm | 0 m/s | - | - |
| 1778030703 | 15.56° C | 91% | 1010.5 hPa | 1.27 mm | 0 m/s | - | - |
| 1778030643 | 15.56° C | 91% | 1010.7 hPa | 0.76 mm | 0 m/s | - | - |
| 1778030583 | 15.56° C | 91% | 1010.8 hPa | 0.51 mm | 0 m/s | - | - |
| 1778030523 | 15.56° C | 91% | 1010.8 hPa | 0.51 mm | 0 m/s | - | - |
| 1778030463 | 15.56° C | 91% | 1010.7 hPa | 0.51 mm | 0 m/s | - | - |
| 1778030403 | 15.56° C | 91% | 1010.7 hPa | 0.25 mm | 0 m/s | - | - |
| 1778030343 | 15.56° C | 91% | 1010.6 hPa | 0.25 mm | 0 m/s | - | - |
| 1778030283 | 15.56° C | 91% | 1010.4 hPa | 0.25 mm | 0 m/s | - | - |
| 1778030224 | 15.56° C | 91% | 1010.4 hPa | 0.25 mm | 0 m/s | - | - |
* Rain latest hour (hover to see other rain measurements)
** Current wind speed in m/s (hover to see current wind gust speed)